Time;durP1;ratioP1;P1;durP2;ratioP2;P2;SDS_P1;SDS_P2;PMS_P1;PMS_P2;Temp;Humidity;BMP_temperature;BMP_pressure;BME280_temperature;BME280_humidity;BME280_pressure;Samples;Min_cycle;Max_cycle;Signal;HPM_P1;HPM_P2
2023/10/01 00:00:14;;;;;;;2.10;1.35;;;;;;;;;;5094382;28;20027;-68
2023/10/01 00:02:41;;;;;;;2.08;1.23;;;;;;;;;;5093918;28;20023;-68
2023/10/01 00:05:08;;;;;;;2.80;1.52;;;;;;;;;;5093980;28;20027;-68
2023/10/01 00:07:37;;;;;;;2.53;1.52;;;;;;;;;;5093880;28;20026;-68
2023/10/01 00:10:10;;;;;;;5.38;1.83;;;;;;;;;;5093818;28;20020;-68
2023/10/01 00:12:40;;;;;;;3.10;1.40;;;;;;;;;;5093813;28;20054;-68
2023/10/01 00:15:10;;;;;;;3.90;1.30;;;;;;;;;;5093422;28;20091;-68
2023/10/01 00:17:37;;;;;;;4.15;1.50;;;;;;;;;;5093485;28;20048;-68
2023/10/01 00:22:43;;;;;;;3.70;1.85;;;;;;;;;;5093673;28;20506;-68
2023/10/01 00:25:10;;;;;;;2.67;1.52;;;;;;;;;;5093634;28;20031;-68
2023/10/01 00:27:39;;;;;;;2.42;1.60;;;;;;;;;;5075542;28;20035;-68
2023/10/01 00:30:09;;;;;;;2.65;1.30;;;;;;;;;;5093746;28;20034;-68
2023/10/01 00:32:39;;;;;;;3.30;1.60;;;;;;;;;;5093400;28;20022;-68
2023/10/01 00:35:06;;;;;;;3.13;1.38;;;;;;;;;;5093846;28;20034;-68
2023/10/01 00:37:33;;;;;;;4.22;1.67;;;;;;;;;;5093253;28;20039;-68
2023/10/01 00:40:00;;;;;;;2.60;1.45;;;;;;;;;;5093242;28;20028;-68
2023/10/01 00:42:28;;;;;;;4.40;1.90;;;;;;;;;;5093169;28;20388;-68
2023/10/01 00:44:58;;;;;;;3.85;2.03;;;;;;;;;;5093309;28;20491;-67
2023/10/01 00:47:25;;;;;;;6.80;1.58;;;;;;;;;;5092743;28;20030;-68
2023/10/01 00:49:53;;;;;;;5.28;1.60;;;;;;;;;;5093404;28;20021;-68
2023/10/01 00:52:23;;;;;;;3.60;1.75;;;;;;;;;;5093290;28;20028;-68
2023/10/01 00:54:54;;;;;;;3.17;1.80;;;;;;;;;;5093113;28;20042;-68
2023/10/01 00:57:23;;;;;;;3.08;1.50;;;;;;;;;;5091996;28;20036;-68
2023/10/01 00:59:50;;;;;;;3.30;1.55;;;;;;;;;;5093181;28;20027;-68
2023/10/01 01:02:17;;;;;;;2.53;1.50;;;;;;;;;;5091529;28;20028;-68
2023/10/01 01:05:05;;;;;;;3.03;1.77;;;;;;;;;;5092864;28;20016;-68
2023/10/01 01:07:32;;;;;;;4.80;1.85;;;;;;;;;;5092859;28;20027;-68
2023/10/01 01:10:01;;;;;;;2.58;1.63;;;;;;;;;;5092908;28;20020;-68
2023/10/01 01:12:27;;;;;;;3.92;1.67;;;;;;;;;;5093121;28;20032;-68
2023/10/01 01:14:54;;;;;;;2.92;1.60;;;;;;;;;;5092344;28;20012;-68
2023/10/01 01:17:21;;;;;;;3.05;1.80;;;;;;;;;;5092630;28;20038;-68
2023/10/01 01:19:55;;;;;;;2.53;1.50;;;;;;;;;;5092766;28;20538;-68
2023/10/01 01:22:31;;;;;;;3.38;1.50;;;;;;;;;;5092790;28;20481;-68
2023/10/01 01:25:00;;;;;;;5.40;1.65;;;;;;;;;;5092745;28;20511;-68
2023/10/01 01:27:31;;;;;;;3.75;1.60;;;;;;;;;;5092796;28;20021;-68
2023/10/01 01:29:58;;;;;;;4.57;1.90;;;;;;;;;;5092332;28;20485;-68
2023/10/01 01:32:24;;;;;;;4.40;1.55;;;;;;;;;;5096254;28;20050;-68
2023/10/01 01:34:52;;;;;;;2.88;1.45;;;;;;;;;;5096887;28;20027;-68
2023/10/01 01:40:24;;;;;;;3.83;1.40;;;;;;;;;;5034520;28;20032;-68
2023/10/01 01:42:52;;;;;;;3.80;1.80;;;;;;;;;;5034537;28;20042;-68
2023/10/01 01:45:19;;;;;;;2.50;1.45;;;;;;;;;;5017727;28;20033;-68
2023/10/01 01:47:46;;;;;;;2.65;1.45;;;;;;;;;;5034264;28;20027;-68
2023/10/01 01:50:26;;;;;;;3.63;1.80;;;;;;;;;;5034393;28;20039;-68
2023/10/01 01:52:53;;;;;;;4.43;1.70;;;;;;;;;;5034217;28;20040;-68
2023/10/01 01:55:23;;;;;;;2.58;1.38;;;;;;;;;;5033949;28;20041;-67
2023/10/01 01:58:06;;;;;;;3.45;1.30;;;;;;;;;;5034042;28;20063;-68
2023/10/01 02:00:35;;;;;;;2.22;1.63;;;;;;;;;;5034301;28;20026;-68
2023/10/01 02:03:10;;;;;;;4.68;1.92;;;;;;;;;;5034369;28;20041;-68
2023/10/01 02:05:41;;;;;;;2.72;1.63;;;;;;;;;;5033921;28;20036;-68
2023/10/01 02:08:23;;;;;;;3.78;1.63;;;;;;;;;;5033810;28;20567;-68
2023/10/01 02:10:51;;;;;;;6.75;1.80;;;;;;;;;;5034142;28;20024;-68
2023/10/01 02:13:17;;;;;;;3.33;1.90;;;;;;;;;;5017247;28;20037;-68
2023/10/01 02:15:47;;;;;;;3.38;1.80;;;;;;;;;;5060944;28;20039;-68
2023/10/01 02:18:17;;;;;;;4.43;1.60;;;;;;;;;;5096079;28;20065;-68
2023/10/01 02:20:56;;;;;;;3.42;1.50;;;;;;;;;;5095991;28;20473;-68
2023/10/01 02:23:32;;;;;;;3.72;1.77;;;;;;;;;;5096197;28;20034;-67
2023/10/01 02:26:00;;;;;;;3.10;1.63;;;;;;;;;;5095908;28;20016;-68
2023/10/01 02:28:32;;;;;;;2.80;1.85;;;;;;;;;;5095337;28;20019;-68
2023/10/01 02:31:03;;;;;;;2.67;1.50;;;;;;;;;;5095855;28;20039;-68
2023/10/01 02:36:22;;;;;;;4.60;2.03;;;;;;;;;;5095568;28;19910;-68
2023/10/01 02:38:53;;;;;;;3.40;1.67;;;;;;;;;;5077402;28;20039;-68
2023/10/01 02:41:19;;;;;;;;;;;;;;;;;;5096031;28;20017;-68
2023/10/01 02:43:50;;;;;;;4.95;2.13;;;;;;;;;;5093855;28;20284;-68
2023/10/01 02:46:26;;;;;;;4.47;2.03;;;;;;;;;;5095690;28;20031;-68
2023/10/01 02:48:59;;;;;;;4.95;2.20;;;;;;;;;;5095652;28;20028;-68
2023/10/01 02:51:32;;;;;;;7.50;3.10;;;;;;;;;;5095332;28;20035;-68
2023/10/01 02:54:05;;;;;;;5.82;2.30;;;;;;;;;;5095106;28;20396;-68
2023/10/01 02:56:33;;;;;;;4.65;2.30;;;;;;;;;;5094877;28;20028;-68
2023/10/01 02:59:09;;;;;;;6.95;2.67;;;;;;;;;;5095471;28;20035;-68
2023/10/01 03:01:38;;;;;;;4.57;2.35;;;;;;;;;;5095154;28;20505;-68
2023/10/01 03:04:10;;;;;;;5.68;2.47;;;;;;;;;;5095339;28;20077;-68
2023/10/01 03:06:57;;;;;;;5.07;2.47;;;;;;;;;;5095451;28;20020;-68
2023/10/01 03:09:34;;;;;;;5.20;2.83;;;;;;;;;;5076871;28;20020;-68
2023/10/01 03:15:00;;;;;;;4.93;2.55;;;;;;;;;;5094819;28;20024;-68
2023/10/01 03:17:38;;;;;;;5.63;2.60;;;;;;;;;;5078818;28;20042;-68
2023/10/01 03:22:53;;;;;;;7.25;2.55;;;;;;;;;;5094805;28;20026;-68
2023/10/01 03:25:27;;;;;;;4.75;2.50;;;;;;;;;;5094336;28;20028;-68
2023/10/01 03:27:58;;;;;;;5.05;2.53;;;;;;;;;;5076686;28;20038;-68
2023/10/01 03:30:24;;;;;;;5.72;2.85;;;;;;;;;;5094782;28;20023;-68
2023/10/01 03:32:50;;;;;;;7.30;2.78;;;;;;;;;;5094706;28;20028;-68
2023/10/01 03:35:20;;;;;;;7.65;3.15;;;;;;;;;;5094776;28;20031;-68
2023/10/01 03:38:08;;;;;;;5.53;2.58;;;;;;;;;;5094444;28;20028;-68
2023/10/01 03:40:41;;;;;;;6.65;3.20;;;;;;;;;;5094099;28;20035;-68
2023/10/01 03:43:08;;;;;;;7.55;3.08;;;;;;;;;;5094731;28;20030;-68
2023/10/01 03:45:38;;;;;;;5.55;3.03;;;;;;;;;;5094223;28;20028;-68
2023/10/01 03:48:06;;;;;;;7.30;3.60;;;;;;;;;;5094218;28;20032;-68
2023/10/01 03:50:45;;;;;;;5.95;3.25;;;;;;;;;;5093316;28;20028;-68
2023/10/01 03:53:11;;;;;;;6.43;3.33;;;;;;;;;;5093947;28;20032;-68
2023/10/01 03:55:39;;;;;;;8.93;3.33;;;;;;;;;;5093441;28;20484;-68
2023/10/01 03:58:08;;;;;;;12.20;3.63;;;;;;;;;;5094133;28;20040;-68
2023/10/01 04:00:41;;;;;;;7.45;3.25;;;;;;;;;;5094299;28;20020;-67
2023/10/01 04:03:13;;;;;;;7.53;3.33;;;;;;;;;;5093964;28;20036;-68
2023/10/01 04:05:46;;;;;;;13.18;3.47;;;;;;;;;;5094139;28;20017;-68
2023/10/01 04:08:13;;;;;;;8.38;3.80;;;;;;;;;;5093836;28;20321;-68
2023/10/01 04:10:57;;;;;;;7.72;3.60;;;;;;;;;;5093593;28;20525;-68
2023/10/01 04:13:24;;;;;;;7.88;3.72;;;;;;;;;;5093810;28;20090;-69
2023/10/01 04:15:57;;;;;;;9.23;3.60;;;;;;;;;;5075513;28;20494;-68
2023/10/01 04:18:28;;;;;;;7.43;3.53;;;;;;;;;;5093638;28;20044;-68
2023/10/01 04:23:47;;;;;;;7.38;3.92;;;;;;;;;;5093418;28;20012;-68
2023/10/01 04:26:17;;;;;;;7.07;3.30;;;;;;;;;;5093779;28;20032;-68
2023/10/01 04:28:45;;;;;;;9.32;3.60;;;;;;;;;;5093282;28;20036;-68
2023/10/01 04:31:15;;;;;;;8.07;3.88;;;;;;;;;;5092262;28;20487;-68
2023/10/01 04:33:43;;;;;;;8.50;3.65;;;;;;;;;;5093446;28;20034;-68
2023/10/01 04:36:16;;;;;;;8.85;3.70;;;;;;;;;;5093461;28;20380;-68
2023/10/01 04:38:51;;;;;;;10.80;4.05;;;;;;;;;;5093066;28;20378;-68
2023/10/01 04:41:18;;;;;;;7.93;3.40;;;;;;;;;;5093230;28;20384;-68
2023/10/01 04:46:36;;;;;;;7.32;3.50;;;;;;;;;;5093201;28;20439;-67
2023/10/01 04:49:08;;;;;;;6.20;3.47;;;;;;;;;;5093108;28;20036;-68
2023/10/01 04:51:47;;;;;;;8.80;4.47;;;;;;;;;;5093180;28;20027;-68
2023/10/01 04:54:21;;;;;;;8.98;3.97;;;;;;;;;;5092516;28;20040;-69
2023/10/01 04:56:49;;;;;;;10.68;4.07;;;;;;;;;;5093002;28;20032;-69
2023/10/01 04:59:15;;;;;;;7.80;3.75;;;;;;;;;;5093265;28;20031;-69
2023/10/01 05:01:42;;;;;;;9.55;4.22;;;;;;;;;;5093418;28;20031;-69
2023/10/01 05:04:14;;;;;;;7.18;3.67;;;;;;;;;;5091682;28;20404;-70
2023/10/01 05:06:59;;;;;;;8.85;3.92;;;;;;;;;;5091826;28;20031;-69
2023/10/01 05:09:29;;;;;;;9.48;4.57;;;;;;;;;;5091701;28;20035;-69
2023/10/01 05:11:55;;;;;;;10.93;4.60;;;;;;;;;;5092900;28;20023;-69
2023/10/01 05:14:22;;;;;;;8.77;4.65;;;;;;;;;;5093065;28;20032;-69
2023/10/01 05:16:49;;;;;;;12.38;5.05;;;;;;;;;;5092547;28;20484;-69
2023/10/01 05:19:18;;;;;;;11.52;4.97;;;;;;;;;;5092746;28;20031;-69
2023/10/01 05:21:48;;;;;;;9.30;4.47;;;;;;;;;;5092546;28;20027;-70
2023/10/01 05:24:16;;;;;;;10.82;4.40;;;;;;;;;;5092822;28;20022;-70
2023/10/01 05:26:45;;;;;;;9.00;4.28;;;;;;;;;;5092626;28;20403;-69
2023/10/01 05:29:20;;;;;;;11.20;4.57;;;;;;;;;;5092823;28;20032;-69
2023/10/01 05:31:47;;;;;;;11.57;5.20;;;;;;;;;;5092757;28;20460;-70
2023/10/01 05:34:14;;;;;;;10.40;4.63;;;;;;;;;;5092926;28;20050;-70
2023/10/01 05:36:41;;;;;;;10.68;4.38;;;;;;;;;;5092210;28;20032;-69
2023/10/01 05:39:11;;;;;;;8.65;4.15;;;;;;;;;;5092588;28;20481;-69
2023/10/01 05:41:44;;;;;;;8.40;4.28;;;;;;;;;;5092762;28;20035;-69
2023/10/01 05:44:11;;;;;;;13.18;4.07;;;;;;;;;;5092835;28;20020;-69
2023/10/01 05:46:37;;;;;;;11.63;5.07;;;;;;;;;;5092826;28;20039;-69
2023/10/01 05:49:03;;;;;;;12.23;4.50;;;;;;;;;;5092436;28;20036;-69
2023/10/01 05:51:31;;;;;;;12.55;4.60;;;;;;;;;;5092204;28;20017;-69
2023/10/01 05:54:02;;;;;;;10.63;4.60;;;;;;;;;;5092257;28;20050;-69
2023/10/01 05:56:36;;;;;;;10.77;4.88;;;;;;;;;;5074357;28;20388;-69
2023/10/01 05:59:03;;;;;;;12.05;4.78;;;;;;;;;;5092690;28;20073;-69
2023/10/01 06:01:33;;;;;;;11.70;4.82;;;;;;;;;;5092673;28;20028;-69
2023/10/01 06:04:00;;;;;;;10.23;4.43;;;;;;;;;;5092627;28;20028;-69
2023/10/01 06:06:27;;;;;;;10.85;4.75;;;;;;;;;;5091972;28;20016;-69
2023/10/01 06:09:00;;;;;;;10.57;4.78;;;;;;;;;;5092220;28;20032;-69
2023/10/01 06:11:41;;;;;;;13.57;5.10;;;;;;;;;;5092214;28;20404;-69
2023/10/01 06:14:29;;;;;;;11.75;5.20;;;;;;;;;;5092316;28;20038;-69
2023/10/01 06:17:00;;;;;;;13.95;5.00;;;;;;;;;;5092887;28;20024;-70
2023/10/01 06:19:32;;;;;;;11.90;5.25;;;;;;;;;;5095657;28;20028;-69
2023/10/01 06:22:12;;;;;;;9.25;4.68;;;;;;;;;;5095975;28;20373;-69
2023/10/01 06:24:43;;;;;;;11.05;4.60;;;;;;;;;;5096085;28;20032;-69
2023/10/01 06:27:09;;;;;;;;;;;;;;;;;;5096026;28;20036;-69
2023/10/01 06:29:49;;;;;;;14.30;5.10;;;;;;;;;;5077686;28;19960;-69
2023/10/01 06:32:17;;;;;;;9.50;4.95;;;;;;;;;;5095782;28;20377;-69
2023/10/01 06:34:45;;;;;;;14.63;5.10;;;;;;;;;;5095408;28;20020;-69
2023/10/01 06:37:12;;;;;;;14.32;5.45;;;;;;;;;;5095660;28;20418;-69
2023/10/01 06:39:41;;;;;;;10.75;5.07;;;;;;;;;;5095613;28;20024;-70
2023/10/01 06:42:19;;;;;;;10.20;4.75;;;;;;;;;;5095789;28;20031;-69
2023/10/01 06:44:49;;;;;;;10.23;4.82;;;;;;;;;;5095465;28;20484;-70
2023/10/01 06:47:22;;;;;;;9.18;4.63;;;;;;;;;;5095402;28;20042;-69
2023/10/01 06:50:07;;;;;;;13.30;5.00;;;;;;;;;;5093937;28;20050;-69
2023/10/01 06:52:41;;;;;;;11.52;5.55;;;;;;;;;;5095473;28;20035;-69
2023/10/01 06:55:25;;;;;;;10.82;5.32;;;;;;;;;;5095071;28;20066;-69
2023/10/01 06:57:52;;;;;;;12.23;5.43;;;;;;;;;;5095259;28;20038;-69
2023/10/01 07:00:22;;;;;;;10.93;5.00;;;;;;;;;;5094118;28;20034;-70
2023/10/01 07:02:51;;;;;;;14.33;5.53;;;;;;;;;;5094947;28;20380;-70
2023/10/01 07:05:21;;;;;;;12.13;6.00;;;;;;;;;;5095425;28;20031;-69
2023/10/01 07:07:54;;;;;;;13.38;5.57;;;;;;;;;;5094989;28;20380;-69
2023/10/01 07:10:21;;;;;;;12.75;5.47;;;;;;;;;;5095140;28;20030;-69
2023/10/01 07:13:04;;;;;;;14.80;5.72;;;;;;;;;;5094962;28;20049;-69
2023/10/01 07:15:34;;;;;;;13.13;5.45;;;;;;;;;;5095059;28;20032;-69
2023/10/01 07:18:13;;;;;;;15.57;6.18;;;;;;;;;;5094721;28;20104;-69
2023/10/01 07:20:44;;;;;;;11.60;5.50;;;;;;;;;;5076746;28;20020;-69
2023/10/01 07:23:11;;;;;;;11.93;5.47;;;;;;;;;;5095047;28;20031;-69
2023/10/01 07:25:39;;;;;;;11.68;5.63;;;;;;;;;;5095049;28;20020;-69
2023/10/01 07:28:06;;;;;;;12.88;5.68;;;;;;;;;;5094361;28;20036;-69
2023/10/01 07:30:45;;;;;;;10.80;5.22;;;;;;;;;;5093168;28;20038;-69
2023/10/01 07:33:14;;;;;;;11.57;5.38;;;;;;;;;;5094577;28;20016;-70
2023/10/01 07:35:45;;;;;;;12.60;5.88;;;;;;;;;;5094566;28;20076;-69
2023/10/01 07:38:15;;;;;;;11.98;5.88;;;;;;;;;;5094514;28;20027;-69
2023/10/01 07:40:52;;;;;;;11.75;6.05;;;;;;;;;;5094557;28;20098;-69
2023/10/01 07:43:21;;;;;;;11.35;5.70;;;;;;;;;;5094587;28;20030;-69
2023/10/01 07:45:55;;;;;;;13.18;5.90;;;;;;;;;;5094642;28;20028;-69
2023/10/01 07:48:23;;;;;;;10.02;5.13;;;;;;;;;;5094202;28;20032;-69
2023/10/01 07:50:52;;;;;;;11.70;5.70;;;;;;;;;;5094540;28;20017;-69
2023/10/01 07:53:20;;;;;;;11.50;5.68;;;;;;;;;;5094224;28;20040;-67
2023/10/01 07:55:47;;;;;;;10.93;5.72;;;;;;;;;;5094226;28;20022;-67
2023/10/01 07:58:44;;;;;;;11.10;6.28;;;;;;;;;;5094154;28;20024;-67
2023/10/01 08:01:45;;;;;;;10.55;6.10;;;;;;;;;;5093675;28;20036;-67
2023/10/01 08:04:08;;;;;;;10.20;6.20;;;;;;;;;;5091035;28;20495;-67
2023/10/01 08:06:44;;;;;;;9.13;5.65;;;;;;;;;;5094150;28;20020;-67
2023/10/01 08:09:13;;;;;;;10.02;6.32;;;;;;;;;;5093860;28;20500;-68
2023/10/01 08:11:58;;;;;;;9.68;6.15;;;;;;;;;;5093916;28;20461;-68
2023/10/01 08:14:33;;;;;;;9.88;5.95;;;;;;;;;;5094238;28;20024;-67
2023/10/01 08:17:00;;;;;;;11.80;6.50;;;;;;;;;;5073077;28;20023;-67
2023/10/01 08:19:44;;;;;;;10.25;6.80;;;;;;;;;;5073416;28;20029;-68
2023/10/01 08:22:23;;;;;;;9.98;6.57;;;;;;;;;;5073397;28;20473;-68
2023/10/01 08:24:49;;;;;;;9.35;5.70;;;;;;;;;;5073364;28;20515;-68
2023/10/01 08:27:32;;;;;;;10.55;6.60;;;;;;;;;;5078296;28;20020;-68
2023/10/01 08:30:20;;;;;;;10.50;6.40;;;;;;;;;;5093095;28;20034;-68
2023/10/01 08:32:49;;;;;;;9.55;6.13;;;;;;;;;;5093753;28;20030;-68
2023/10/01 08:35:34;;;;;;;8.57;6.25;;;;;;;;;;5093362;28;20473;-68
2023/10/01 08:38:00;;;;;;;9.55;6.38;;;;;;;;;;5093344;28;20477;-68
2023/10/01 08:40:30;;;;;;;8.07;5.78;;;;;;;;;;5093366;28;20469;-68
2023/10/01 08:42:59;;;;;;;10.32;6.22;;;;;;;;;;5075069;28;20030;-68
2023/10/01 08:45:37;;;;;;;11.93;6.90;;;;;;;;;;5092930;28;20020;-68
2023/10/01 08:48:08;;;;;;;10.38;6.38;;;;;;;;;;5093278;28;20040;-68
2023/10/01 08:50:40;;;;;;;10.68;6.40;;;;;;;;;;5093449;28;20019;-68
2023/10/01 08:53:11;;;;;;;11.23;6.57;;;;;;;;;;5092983;28;20016;-68
2023/10/01 08:55:39;;;;;;;10.52;7.10;;;;;;;;;;5093109;28;20039;-68
2023/10/01 08:58:15;;;;;;;8.60;6.32;;;;;;;;;;5093315;28;20042;-68
2023/10/01 09:00:49;;;;;;;13.23;6.80;;;;;;;;;;5092698;28;20019;-68
2023/10/01 09:03:26;;;;;;;10.32;7.03;;;;;;;;;;5092972;28;20488;-68
2023/10/01 09:06:24;;;;;;;12.75;7.85;;;;;;;;;;5093229;28;20016;-68
2023/10/01 09:08:54;;;;;;;9.45;6.60;;;;;;;;;;5092830;28;20020;-68
2023/10/01 09:11:22;;;;;;;;;;;;;;;;;;5093414;28;20038;-68
2023/10/01 09:14:15;;;;;;;9.27;6.80;;;;;;;;;;5092902;28;19904;-68
2023/10/01 09:16:45;;;;;;;9.60;7.03;;;;;;;;;;5092659;28;20419;-68
2023/10/01 09:19:30;;;;;;;16.85;7.43;;;;;;;;;;5092683;28;20028;-68
2023/10/01 09:22:04;;;;;;;10.13;6.90;;;;;;;;;;5092795;28;20058;-68
2023/10/01 09:24:34;;;;;;;11.45;7.47;;;;;;;;;;5092990;28;20042;-68
2023/10/01 09:27:09;;;;;;;13.13;8.15;;;;;;;;;;5092839;28;20024;-68
2023/10/01 09:29:44;;;;;;;15.40;7.60;;;;;;;;;;5092318;28;20031;-68
2023/10/01 09:32:14;;;;;;;11.77;7.80;;;;;;;;;;5074553;28;20024;-68
2023/10/01 09:34:58;;;;;;;13.52;8.02;;;;;;;;;;5092654;28;20026;-68
2023/10/01 09:37:34;;;;;;;12.18;8.32;;;;;;;;;;5092816;28;20024;-67
2023/10/01 09:40:32;;;;;;;12.00;8.10;;;;;;;;;;5092639;28;20020;-68
2023/10/01 09:42:56;;;;;;;12.57;8.38;;;;;;;;;;5092110;28;20362;-68
2023/10/01 09:45:39;;;;;;;12.30;8.25;;;;;;;;;;5092585;28;20465;-68
2023/10/01 09:48:10;;;;;;;12.27;8.05;;;;;;;;;;5092379;28;20507;-68
2023/10/01 09:50:41;;;;;;;13.02;9.10;;;;;;;;;;5092484;28;20100;-68
2023/10/01 09:53:12;;;;;;;13.45;9.57;;;;;;;;;;5095236;28;20031;-69
2023/10/01 09:55:48;;;;;;;13.38;9.10;;;;;;;;;;5096520;28;20024;-68
2023/10/01 09:58:29;;;;;;;14.43;9.18;;;;;;;;;;5096193;28;20028;-68
2023/10/01 10:01:01;;;;;;;16.27;9.68;;;;;;;;;;5096513;28;20028;-68
2023/10/01 10:03:36;;;;;;;16.00;10.25;;;;;;;;;;5096464;28;20427;-68
2023/10/01 10:06:06;;;;;;;19.88;10.57;;;;;;;;;;5096179;28;20399;-68
2023/10/01 10:08:34;;;;;;;;;;;;;;;;;;5096734;28;20024;-68
2023/10/01 10:11:02;;;;;;;19.73;11.63;;;;;;;;;;5095990;28;19910;-68
2023/10/01 10:13:46;;;;;;;17.02;10.65;;;;;;;;;;5096111;28;20518;-68
2023/10/01 10:16:32;;;;;;;17.10;10.25;;;;;;;;;;5095953;28;20380;-67
2023/10/01 10:19:05;;;;;;;15.88;10.32;;;;;;;;;;5096258;28;20024;-69
2023/10/01 10:22:04;;;;;;;17.17;10.73;;;;;;;;;;5095907;28;20036;-68
2023/10/01 10:24:34;;;;;;;20.07;11.63;;;;;;;;;;5095967;28;20016;-68
2023/10/01 10:27:01;;;;;;;;;;;;;;;;;;5095883;28;20032;-69
2023/10/01 10:29:46;;;;;;;17.10;11.43;;;;;;;;;;5096074;28;19912;-69
2023/10/01 10:32:14;;;;;;;14.85;10.13;;;;;;;;;;5095818;28;20016;-68
2023/10/01 10:35:07;;;;;;;16.23;10.65;;;;;;;;;;5095598;28;20388;-69
2023/10/01 10:37:36;;;;;;;15.93;10.98;;;;;;;;;;5095546;28;20020;-69
2023/10/01 10:40:13;;;;;;;17.67;11.07;;;;;;;;;;5095451;28;20016;-68
2023/10/01 10:42:40;;;;;;;18.25;10.57;;;;;;;;;;5095515;28;20032;-68
2023/10/01 10:45:19;;;;;;;18.50;11.02;;;;;;;;;;5095868;28;20069;-69
2023/10/01 10:47:58;;;;;;;17.40;10.65;;;;;;;;;;5095437;28;20020;-68
2023/10/01 10:50:50;;;;;;;14.57;9.95;;;;;;;;;;5095550;28;20053;-69
2023/10/01 10:53:19;;;;;;;14.93;10.38;;;;;;;;;;5095395;28;20062;-69
2023/10/01 10:55:55;;;;;;;15.30;10.50;;;;;;;;;;5095116;28;20025;-68
2023/10/01 10:58:24;;;;;;;15.55;10.15;;;;;;;;;;5095226;28;20507;-69
2023/10/01 11:00:50;;;;;;;15.18;9.73;;;;;;;;;;5095344;28;20388;-69
2023/10/01 11:03:38;;;;;;;15.88;9.73;;;;;;;;;;5094697;28;20039;-68
2023/10/01 11:06:16;;;;;;;16.23;10.02;;;;;;;;;;5077049;28;20030;-69
2023/10/01 11:08:53;;;;;;;17.30;10.00;;;;;;;;;;5076968;28;20036;-68
2023/10/01 11:11:25;;;;;;;16.30;9.27;;;;;;;;;;5095325;28;20024;-69
2023/10/01 11:14:01;;;;;;;13.98;10.15;;;;;;;;;;5095008;28;20484;-68
2023/10/01 11:16:36;;;;;;;14.60;9.95;;;;;;;;;;5094816;28;20026;-68
2023/10/01 11:19:12;;;;;;;15.90;9.98;;;;;;;;;;5094970;28;20495;-69
2023/10/01 11:21:54;;;;;;;15.55;8.80;;;;;;;;;;5094896;28;20400;-69
2023/10/01 11:24:22;;;;;;;12.05;8.20;;;;;;;;;;5094548;28;20013;-69
2023/10/01 11:27:11;;;;;;;13.88;9.25;;;;;;;;;;5094504;28;20035;-69
2023/10/01 11:29:39;;;;;;;12.87;8.87;;;;;;;;;;5094721;28;20036;-69
2023/10/01 11:32:05;;;;;;;11.00;7.97;;;;;;;;;;5094679;28;20031;-69
2023/10/01 11:34:43;;;;;;;12.63;8.48;;;;;;;;;;5094680;28;20036;-69
2023/10/01 11:37:18;;;;;;;14.70;8.18;;;;;;;;;;5094616;28;20016;-70
2023/10/01 11:39:52;;;;;;;9.95;7.50;;;;;;;;;;5094257;28;19938;-69
2023/10/01 11:42:27;;;;;;;8.07;6.25;;;;;;;;;;5094467;28;20017;-70
2023/10/01 11:44:54;;;;;;;10.82;5.57;;;;;;;;;;5094485;28;20430;-69
2023/10/01 11:47:33;;;;;;;9.38;5.78;;;;;;;;;;5094657;28;20032;-69
2023/10/01 11:50:11;;;;;;;7.10;5.43;;;;;;;;;;5094298;28;20472;-69
2023/10/01 11:52:42;;;;;;;8.85;5.80;;;;;;;;;;5093982;28;20028;-69
2023/10/01 11:55:20;;;;;;;7.72;5.78;;;;;;;;;;5094049;28;20040;-69
2023/10/01 11:57:53;;;;;;;8.43;6.07;;;;;;;;;;5094333;28;20032;-69
2023/10/01 12:00:52;;;;;;;6.00;5.07;;;;;;;;;;5094375;28;20056;-68
2023/10/01 12:03:10;;;;;;;7.80;6.25;;;;;;;;;;5094120;28;20027;-70
2023/10/01 12:05:41;;;;;;;7.20;5.28;;;;;;;;;;5094017;28;20020;-69
2023/10/01 12:08:18;;;;;;;6.55;4.95;;;;;;;;;;5093461;28;20028;-70
2023/10/01 12:10:45;;;;;;;6.43;4.88;;;;;;;;;;5093891;28;20038;-70
2023/10/01 12:13:13;;;;;;;5.72;4.80;;;;;;;;;;5093939;28;20380;-70
2023/10/01 12:15:52;;;;;;;4.70;4.18;;;;;;;;;;5093356;28;20028;-70
2023/10/01 12:18:18;;;;;;;4.90;4.40;;;;;;;;;;5075515;28;20044;-70
2023/10/01 12:20:50;;;;;;;3.92;3.50;;;;;;;;;;5093636;28;20020;-69
2023/10/01 12:23:19;;;;;;;5.68;4.40;;;;;;;;;;5093562;28;20028;-69
2023/10/01 12:25:46;;;;;;;;;;;;;;;;;;5094355;28;20024;-70
2023/10/01 12:28:18;;;;;;;6.10;4.10;;;;;;;;;;5093289;28;20001;-70
2023/10/01 12:31:08;;;;;;;5.13;4.10;;;;;;;;;;5093771;28;20030;-69
2023/10/01 12:39:16;;;;;;;6.22;4.40;;;;;;;;;;5030933;28;20053;-70
2023/10/01 12:44:36;;;;;;;5.38;3.63;;;;;;;;;;5031182;28;20041;-70
2023/10/01 12:47:15;;;;;;;6.22;4.10;;;;;;;;;;5014766;28;20021;-70
2023/10/01 12:49:58;;;;;;;5.10;4.17;;;;;;;;;;5031208;28;20540;-70
2023/10/01 12:52:30;;;;;;;4.40;3.90;;;;;;;;;;5030672;28;20036;-70
2023/10/01 12:55:00;;;;;;;5.80;4.32;;;;;;;;;;5030694;28;20057;-70
2023/10/01 12:57:33;;;;;;;6.30;3.75;;;;;;;;;;5030551;28;20033;-69
2023/10/01 13:03:09;;;;;;;5.95;4.60;;;;;;;;;;4991370;28;20039;-69
2023/10/01 13:05:43;;;;;;;6.03;4.68;;;;;;;;;;4991320;28;20038;-70
2023/10/01 13:08:11;;;;;;;6.03;4.50;;;;;;;;;;4991476;28;20018;-69
2023/10/01 13:10:38;;;;;;;7.22;4.95;;;;;;;;;;4991302;28;20537;-70
2023/10/01 13:13:07;;;;;;;6.15;4.90;;;;;;;;;;4991220;28;20601;-69
2023/10/01 13:15:33;;;;;;;8.13;4.77;;;;;;;;;;5014934;28;20179;-69
2023/10/01 13:18:11;;;;;;;8.23;4.85;;;;;;;;;;5050333;28;20339;-68
2023/10/01 13:23:16;;;;;;;4.37;3.70;;;;;;;;;;5050310;28;20428;-70
2023/10/01 13:26:05;;;;;;;7.90;4.97;;;;;;;;;;5050388;28;20079;-70
2023/10/01 13:28:43;;;;;;;7.10;5.15;;;;;;;;;;5049830;28;20031;-70
2023/10/01 13:37:11;;;;;;;6.93;5.18;;;;;;;;;;5030332;28;20026;-70
2023/10/01 14:09:48;;;;;;;9.82;6.40;;;;;;;;;;5068211;28;20040;-70
2023/10/01 14:12:15;;;;;;;8.75;6.32;;;;;;;;;;5092318;28;20026;-70
2023/10/01 14:14:43;;;;;;;8.70;6.63;;;;;;;;;;5092116;28;20024;-69
2023/10/01 14:17:13;;;;;;;8.95;6.93;;;;;;;;;;5092199;28;20024;-69
2023/10/01 14:19:51;;;;;;;9.05;6.70;;;;;;;;;;5091829;28;20038;-69
2023/10/01 14:22:19;;;;;;;10.00;7.38;;;;;;;;;;5092459;28;20031;-69
2023/10/01 14:24:46;;;;;;;11.25;7.53;;;;;;;;;;5092383;28;20037;-69
2023/10/01 14:27:24;;;;;;;11.13;7.63;;;;;;;;;;5091992;28;20022;-69
2023/10/01 14:30:01;;;;;;;13.90;7.97;;;;;;;;;;5092457;28;20026;-69
2023/10/01 14:32:34;;;;;;;12.77;8.02;;;;;;;;;;5090707;28;20156;-69
2023/10/01 14:35:02;;;;;;;11.88;8.65;;;;;;;;;;5092373;28;20046;-69
2023/10/01 14:37:32;;;;;;;11.10;8.25;;;;;;;;;;5090667;28;20024;-70
2023/10/01 14:40:13;;;;;;;13.73;7.90;;;;;;;;;;5094821;28;20042;-69
2023/10/01 14:42:39;;;;;;;15.30;9.18;;;;;;;;;;5095585;28;20023;-69
2023/10/01 14:45:07;;;;;;;11.55;8.63;;;;;;;;;;5095926;28;20020;-69
2023/10/01 14:47:35;;;;;;;12.25;8.80;;;;;;;;;;5095211;28;20502;-69
2023/10/01 14:50:01;;;;;;;15.02;9.07;;;;;;;;;;5095559;28;20020;-69
2023/10/01 14:52:27;;;;;;;14.10;8.95;;;;;;;;;;5077410;28;20034;-69
2023/10/01 14:54:58;;;;;;;13.00;9.32;;;;;;;;;;5095247;28;20400;-68
2023/10/01 14:57:25;;;;;;;15.95;9.88;;;;;;;;;;5095195;28;20450;-69
2023/10/01 14:59:56;;;;;;;15.95;9.75;;;;;;;;;;5095358;28;20027;-69
2023/10/01 15:02:22;;;;;;;14.15;9.50;;;;;;;;;;5095220;28;20020;-69
2023/10/01 15:04:48;;;;;;;15.13;10.20;;;;;;;;;;5095271;28;20076;-69
2023/10/01 15:07:16;;;;;;;13.82;10.13;;;;;;;;;;5095081;28;20426;-68
2023/10/01 15:09:42;;;;;;;17.13;9.80;;;;;;;;;;5095579;28;20073;-69
2023/10/01 15:12:11;;;;;;;20.77;9.82;;;;;;;;;;5095415;28;20032;-69
2023/10/01 15:14:38;;;;;;;15.60;10.05;;;;;;;;;;5094897;28;20022;-69
2023/10/01 15:17:07;;;;;;;14.45;10.00;;;;;;;;;;5094637;28;20038;-69
2023/10/01 15:19:46;;;;;;;15.43;10.38;;;;;;;;;;5094922;28;20031;-68
2023/10/01 15:22:16;;;;;;;17.77;10.48;;;;;;;;;;5095022;28;20031;-68
2023/10/01 15:24:43;;;;;;;18.02;11.27;;;;;;;;;;5094841;28;20030;-68
2023/10/01 15:27:10;;;;;;;20.33;11.77;;;;;;;;;;5076847;28;20028;-68
2023/10/01 15:29:36;;;;;;;19.77;11.85;;;;;;;;;;5094661;28;20030;-68
2023/10/01 15:32:14;;;;;;;17.80;10.77;;;;;;;;;;5094580;28;20357;-69
2023/10/01 15:34:44;;;;;;;18.55;12.02;;;;;;;;;;5094548;28;20016;-68
2023/10/01 15:37:13;;;;;;;22.20;12.33;;;;;;;;;;5094896;28;20020;-68
2023/10/01 15:39:41;;;;;;;18.60;12.63;;;;;;;;;;5076480;28;20031;-69
2023/10/01 15:42:15;;;;;;;22.15;12.50;;;;;;;;;;5094467;28;20024;-68
2023/10/01 15:44:49;;;;;;;20.15;12.65;;;;;;;;;;5094066;28;20379;-68
2023/10/01 15:50:07;;;;;;;23.10;13.20;;;;;;;;;;5093669;28;20034;-67
2023/10/01 15:52:46;;;;;;;23.73;13.50;;;;;;;;;;5094123;28;20020;-68
2023/10/01 15:55:15;;;;;;;22.50;13.37;;;;;;;;;;5076017;28;20500;-68
2023/10/01 15:58:01;;;;;;;22.27;13.50;;;;;;;;;;5094588;28;20028;-68
2023/10/01 16:00:29;;;;;;;26.60;14.00;;;;;;;;;;5094235;28;20028;-68
2023/10/01 16:03:02;;;;;;;24.08;13.52;;;;;;;;;;5094313;28;20020;-68
2023/10/01 16:05:37;;;;;;;22.17;13.15;;;;;;;;;;5076635;28;20125;-68
2023/10/01 16:08:03;;;;;;;23.00;13.15;;;;;;;;;;5094119;28;20028;-68
2023/10/01 16:10:42;;;;;;;25.20;14.40;;;;;;;;;;5093917;28;20423;-67
2023/10/01 16:13:14;;;;;;;21.52;13.50;;;;;;;;;;5093864;28;20031;-68
2023/10/01 16:15:49;;;;;;;23.77;13.30;;;;;;;;;;5093422;28;20426;-68
2023/10/01 16:18:16;;;;;;;23.10;12.73;;;;;;;;;;5093934;28;20046;-68